RYR2BM GMMX-GCRR
Flight info
| Callsign | RYR2BM |
|---|---|
| Flight time | 0h 59m |
| Altitude | 33000 |
| Route | LISRA UG850 DEVLA |
| Aircraft | B38M/M-SADE3FGILRWY/SB1 |
Departure
| Time | 2026-04-29 15:42 |
|---|---|
| Airport | Marrakesh Menara Airport (GMMX) |
Arrival
| Time | 2026-04-29 16:41 |
|---|---|
| Airport | César Manrique-Lanzarote Airport (GCRR) |
| Time | Latitude | Longitude | Altitude | Speed | Heading |
|---|---|---|---|---|---|
| 2026-04-29 15:08 | 31.60343 | -8.02449 | 1532 ft | 0 kts | 185° |
| 2026-04-29 15:35 | 31.60359 | -8.02447 | 1532 ft | 2 kts | 184° |
| 2026-04-29 15:35 | 31.60375 | -8.02446 | 1541 ft | 2 kts | 182° |
| 2026-04-29 15:35 | 31.60391 | -8.02446 | 1539 ft | 2 kts | 176° |
| 2026-04-29 15:36 | 31.60407 | -8.02450 | 1541 ft | 2 kts | 143° |
| 2026-04-29 15:36 | 31.60414 | -8.02463 | 1532 ft | 1 kts | 98° |
| 2026-04-29 15:36 | 31.60414 | -8.02465 | 1532 ft | 0 kts | 97° |
| 2026-04-29 15:38 | 31.60413 | -8.02453 | 1535 ft | 2 kts | 97° |
| 2026-04-29 15:39 | 31.60411 | -8.02431 | 1536 ft | 2 kts | 94° |
| 2026-04-29 15:39 | 31.60409 | -8.02405 | 1541 ft | 4 kts | 95° |
| 2026-04-29 15:39 | 31.60406 | -8.02367 | 1541 ft | 5 kts | 96° |
| 2026-04-29 15:39 | 31.60401 | -8.02316 | 1535 ft | 7 kts | 96° |
| 2026-04-29 15:40 | 31.60396 | -8.02255 | 1542 ft | 8 kts | 96° |
| 2026-04-29 15:40 | 31.60395 | -8.02184 | 1543 ft | 7 kts | 69° |
| 2026-04-29 15:40 | 31.60418 | -8.02168 | 1541 ft | 3 kts | 7° |
| 2026-04-29 15:40 | 31.60453 | -8.02163 | 1543 ft | 7 kts | 7° |
| 2026-04-29 15:41 | 31.60510 | -8.02155 | 1540 ft | 10 kts | 7° |
| 2026-04-29 15:41 | 31.60560 | -8.02176 | 1536 ft | 7 kts | 295° |
| 2026-04-29 15:41 | 31.60581 | -8.02396 | 1540 ft | 64 kts | 276° |
| 2026-04-29 15:41 | 31.60653 | -8.03220 | 1532 ft | 137 kts | 276° |
| 2026-04-29 15:42 | 31.60779 | -8.04538 | 1585 ft | 186 kts | 279° |
| 2026-04-29 15:42 | 31.60956 | -8.06060 | 2371 ft | 191 kts | 278° |
| 2026-04-29 15:42 | 31.61091 | -8.07572 | 3391 ft | 188 kts | 277° |
| 2026-04-29 15:42 | 31.61222 | -8.09156 | 4095 ft | 206 kts | 277° |
| 2026-04-29 15:43 | 31.61363 | -8.10880 | 4935 ft | 217 kts | 276° |
| 2026-04-29 15:43 | 31.61512 | -8.12709 | 5702 ft | 235 kts | 276° |
| 2026-04-29 15:43 | 31.61672 | -8.14688 | 6466 ft | 251 kts | 275° |
| 2026-04-29 15:43 | 31.61630 | -8.16745 | 7450 ft | 251 kts | 256° |
| 2026-04-29 15:44 | 31.60908 | -8.18588 | 8486 ft | 253 kts | 229° |
| 2026-04-29 15:44 | 31.59529 | -8.19854 | 9481 ft | 255 kts | 207° |
| 2026-04-29 15:44 | 31.57967 | -8.20893 | 10173 ft | 271 kts | 215° |
| 2026-04-29 15:44 | 31.56372 | -8.22218 | 10693 ft | 291 kts | 214° |
| 2026-04-29 15:45 | 31.54652 | -8.23623 | 11155 ft | 311 kts | 214° |
| 2026-04-29 15:45 | 31.52827 | -8.25095 | 11757 ft | 325 kts | 214° |
| 2026-04-29 15:45 | 31.50931 | -8.26612 | 12453 ft | 333 kts | 214° |
| 2026-04-29 15:45 | 31.49007 | -8.28145 | 13340 ft | 337 kts | 214° |
| 2026-04-29 15:46 | 31.47053 | -8.29696 | 14099 ft | 342 kts | 214° |
| 2026-04-29 15:46 | 31.45074 | -8.31265 | 14861 ft | 344 kts | 214° |
| 2026-04-29 15:46 | 31.43112 | -8.32820 | 15609 ft | 347 kts | 214° |
| 2026-04-29 15:46 | 31.41092 | -8.34420 | 16195 ft | 356 kts | 214° |
| 2026-04-29 15:47 | 31.38991 | -8.36082 | 16362 ft | 375 kts | 214° |
| 2026-04-29 15:47 | 31.36780 | -8.37831 | 16539 ft | 390 kts | 214° |
| 2026-04-29 15:47 | 31.34505 | -8.39629 | 16962 ft | 397 kts | 214° |
| 2026-04-29 15:47 | 31.32219 | -8.41435 | 17583 ft | 399 kts | 214° |
| 2026-04-29 15:48 | 31.29906 | -8.43261 | 18134 ft | 402 kts | 214° |
| 2026-04-29 15:48 | 31.27581 | -8.45096 | 18638 ft | 404 kts | 214° |
| 2026-04-29 15:48 | 31.25244 | -8.46938 | 19116 ft | 407 kts | 214° |
| 2026-04-29 15:48 | 31.22973 | -8.48855 | 19550 ft | 410 kts | 221° |
| 2026-04-29 15:49 | 31.20849 | -8.51075 | 20049 ft | 411 kts | 221° |
| 2026-04-29 15:49 | 31.18684 | -8.53282 | 20514 ft | 414 kts | 221° |
| 2026-04-29 15:49 | 31.16495 | -8.55488 | 20972 ft | 417 kts | 221° |
| 2026-04-29 15:49 | 31.14285 | -8.57700 | 21453 ft | 420 kts | 221° |
| 2026-04-29 15:50 | 31.12057 | -8.59922 | 21900 ft | 423 kts | 221° |
| 2026-04-29 15:50 | 31.09808 | -8.62163 | 22366 ft | 426 kts | 221° |
| 2026-04-29 15:50 | 31.07547 | -8.64413 | 22817 ft | 429 kts | 221° |
| 2026-04-29 15:50 | 31.05275 | -8.66674 | 23285 ft | 432 kts | 221° |
| 2026-04-29 15:51 | 31.03004 | -8.68931 | 23698 ft | 435 kts | 221° |
| 2026-04-29 15:51 | 31.00696 | -8.71224 | 24118 ft | 437 kts | 221° |
| 2026-04-29 15:51 | 30.98374 | -8.73529 | 24544 ft | 439 kts | 221° |
| 2026-04-29 15:51 | 30.96047 | -8.75838 | 25007 ft | 440 kts | 221° |
| 2026-04-29 15:52 | 30.93708 | -8.78158 | 25389 ft | 443 kts | 221° |
| 2026-04-29 15:52 | 30.91356 | -8.80489 | 25888 ft | 444 kts | 221° |
| 2026-04-29 15:52 | 30.89036 | -8.82775 | 26266 ft | 447 kts | 221° |
| 2026-04-29 15:52 | 30.86653 | -8.85109 | 26657 ft | 449 kts | 221° |
| 2026-04-29 15:53 | 30.84262 | -8.87452 | 27081 ft | 451 kts | 221° |
| 2026-04-29 15:53 | 30.81897 | -8.89768 | 27640 ft | 449 kts | 221° |
| 2026-04-29 15:53 | 30.79516 | -8.92099 | 28205 ft | 447 kts | 221° |
| 2026-04-29 15:53 | 30.77138 | -8.94425 | 28762 ft | 446 kts | 221° |
| 2026-04-29 15:54 | 30.74765 | -8.96745 | 29337 ft | 444 kts | 221° |
| 2026-04-29 15:54 | 30.72411 | -8.99045 | 29958 ft | 442 kts | 221° |
| 2026-04-29 15:54 | 30.70067 | -9.01334 | 30463 ft | 440 kts | 222° |
| 2026-04-29 15:54 | 30.67729 | -9.03615 | 31006 ft | 437 kts | 222° |
| 2026-04-29 15:55 | 30.65409 | -9.05876 | 31556 ft | 434 kts | 223° |
| 2026-04-29 15:55 | 30.63141 | -9.08099 | 32087 ft | 430 kts | 223° |
| 2026-04-29 15:55 | 30.60868 | -9.10331 | 32684 ft | 426 kts | 223° |
| 2026-04-29 15:55 | 30.58610 | -9.12545 | 33229 ft | 423 kts | 224° |
| 2026-04-29 15:56 | 30.56374 | -9.14737 | 33758 ft | 421 kts | 224° |
| 2026-04-29 15:56 | 30.54137 | -9.16927 | 34212 ft | 419 kts | 224° |
| 2026-04-29 15:56 | 30.51913 | -9.19104 | 34593 ft | 418 kts | 224° |
| 2026-04-29 15:56 | 30.49695 | -9.21273 | 34972 ft | 417 kts | 224° |
| 2026-04-29 15:57 | 30.47487 | -9.23431 | 35345 ft | 416 kts | 224° |
| 2026-04-29 15:57 | 30.45276 | -9.25592 | 35701 ft | 415 kts | 224° |
| 2026-04-29 15:57 | 30.43105 | -9.27711 | 36042 ft | 414 kts | 224° |
| 2026-04-29 15:57 | 30.40901 | -9.29861 | 36390 ft | 413 kts | 224° |
| 2026-04-29 15:58 | 30.38708 | -9.32000 | 36714 ft | 412 kts | 224° |
| 2026-04-29 15:58 | 30.36514 | -9.34138 | 37037 ft | 411 kts | 224° |
| 2026-04-29 15:58 | 30.34333 | -9.36278 | 37347 ft | 410 kts | 226° |
| 2026-04-29 15:58 | 30.32535 | -9.38774 | 37671 ft | 402 kts | 242° |
| 2026-04-29 15:59 | 30.31379 | -9.41700 | 37965 ft | 400 kts | 248° |
| 2026-04-29 15:59 | 30.30348 | -9.44695 | 38178 ft | 401 kts | 249° |
| 2026-04-29 15:59 | 30.29373 | -9.47668 | 38438 ft | 400 kts | 250° |
| 2026-04-29 15:59 | 30.28408 | -9.50688 | 38658 ft | 400 kts | 250° |
| 2026-04-29 16:00 | 30.27457 | -9.53713 | 38835 ft | 400 kts | 250° |
| 2026-04-29 16:00 | 30.25568 | -9.59786 | 38887 ft | 401 kts | 250° |
| 2026-04-29 16:01 | 30.23687 | -9.65842 | 38894 ft | 400 kts | 250° |
| 2026-04-29 16:01 | 30.21802 | -9.71904 | 38914 ft | 400 kts | 250° |
| 2026-04-29 16:02 | 30.19928 | -9.77922 | 38913 ft | 400 kts | 250° |
| 2026-04-29 16:02 | 30.18054 | -9.83980 | 38934 ft | 401 kts | 251° |
| 2026-04-29 16:03 | 30.16238 | -9.90066 | 38926 ft | 400 kts | 251° |
| 2026-04-29 16:03 | 30.14415 | -9.96144 | 38934 ft | 400 kts | 251° |
| 2026-04-29 16:04 | 30.12603 | -10.02174 | 38945 ft | 400 kts | 251° |
| 2026-04-29 16:04 | 30.10773 | -10.08250 | 38944 ft | 400 kts | 251° |
| 2026-04-29 16:05 | 30.08940 | -10.14322 | 38941 ft | 400 kts | 251° |
| 2026-04-29 16:05 | 30.07410 | -10.19365 | 38949 ft | 400 kts | 250° |
| 2026-04-29 16:06 | 30.05191 | -10.26377 | 38942 ft | 400 kts | 250° |
| 2026-04-29 16:06 | 30.03286 | -10.32405 | 38950 ft | 400 kts | 250° |
| 2026-04-29 16:07 | 30.01699 | -10.37419 | 38949 ft | 400 kts | 250° |
| 2026-04-29 16:07 | 29.99789 | -10.43443 | 38951 ft | 400 kts | 250° |
| 2026-04-29 16:08 | 29.97875 | -10.49469 | 38954 ft | 400 kts | 250° |
| 2026-04-29 16:08 | 29.95655 | -10.56445 | 38944 ft | 397 kts | 249° |
| 2026-04-29 16:09 | 29.94070 | -10.61418 | 38947 ft | 398 kts | 249° |
| 2026-04-29 16:09 | 29.92157 | -10.67406 | 38950 ft | 398 kts | 249° |
| 2026-04-29 16:10 | 29.90243 | -10.73391 | 38958 ft | 398 kts | 249° |
| 2026-04-29 16:10 | 29.88326 | -10.79373 | 38954 ft | 398 kts | 249° |
| 2026-04-29 16:11 | 29.86418 | -10.85315 | 38956 ft | 398 kts | 249° |
| 2026-04-29 16:11 | 29.84495 | -10.91292 | 38958 ft | 398 kts | 249° |
| 2026-04-29 16:12 | 29.82568 | -10.97273 | 38969 ft | 399 kts | 249° |
| 2026-04-29 16:12 | 29.80641 | -11.03245 | 38965 ft | 399 kts | 249° |
| 2026-04-29 16:13 | 29.78698 | -11.09253 | 38959 ft | 399 kts | 249° |
| 2026-04-29 16:13 | 29.76759 | -11.15238 | 38956 ft | 399 kts | 248° |
| 2026-04-29 16:14 | 29.74816 | -11.21226 | 38965 ft | 399 kts | 248° |
| 2026-04-29 16:14 | 29.72871 | -11.27209 | 38963 ft | 399 kts | 248° |
| 2026-04-29 16:15 | 29.70925 | -11.33184 | 38974 ft | 400 kts | 248° |
| 2026-04-29 16:15 | 29.68970 | -11.39179 | 38966 ft | 400 kts | 248° |
| 2026-04-29 16:16 | 29.67010 | -11.45176 | 38937 ft | 401 kts | 248° |
| 2026-04-29 16:16 | 29.66028 | -11.48176 | 38763 ft | 400 kts | 248° |
| 2026-04-29 16:16 | 29.65051 | -11.51158 | 38544 ft | 399 kts | 248° |
| 2026-04-29 16:16 | 29.64072 | -11.54144 | 38304 ft | 399 kts | 248° |
| 2026-04-29 16:17 | 29.63105 | -11.57093 | 38060 ft | 400 kts | 248° |
| 2026-04-29 16:17 | 29.62121 | -11.60089 | 37822 ft | 401 kts | 248° |
| 2026-04-29 16:17 | 29.61131 | -11.63100 | 37577 ft | 403 kts | 248° |
| 2026-04-29 16:17 | 29.60140 | -11.66114 | 37343 ft | 404 kts | 248° |
| 2026-04-29 16:18 | 29.59146 | -11.69133 | 37084 ft | 404 kts | 248° |
| 2026-04-29 16:18 | 29.58157 | -11.72134 | 36440 ft | 402 kts | 248° |
| 2026-04-29 16:18 | 29.57157 | -11.75163 | 35394 ft | 411 kts | 248° |
| 2026-04-29 16:18 | 29.56134 | -11.78262 | 34465 ft | 417 kts | 248° |
| 2026-04-29 16:19 | 29.55103 | -11.81383 | 33688 ft | 419 kts | 248° |
| 2026-04-29 16:19 | 29.54069 | -11.84510 | 32939 ft | 419 kts | 248° |
| 2026-04-29 16:19 | 29.53036 | -11.87631 | 32193 ft | 418 kts | 248° |
| 2026-04-29 16:19 | 29.52001 | -11.90757 | 31400 ft | 420 kts | 248° |
| 2026-04-29 16:20 | 29.50957 | -11.93903 | 30566 ft | 423 kts | 248° |
| 2026-04-29 16:20 | 29.49908 | -11.97062 | 29676 ft | 426 kts | 248° |
| 2026-04-29 16:20 | 29.48850 | -12.00248 | 28685 ft | 429 kts | 248° |
| 2026-04-29 16:20 | 29.47783 | -12.03454 | 27797 ft | 430 kts | 248° |
| 2026-04-29 16:21 | 29.46725 | -12.06634 | 27175 ft | 424 kts | 248° |
| 2026-04-29 16:21 | 29.45661 | -12.09828 | 26458 ft | 431 kts | 248° |
| 2026-04-29 16:21 | 29.44588 | -12.13045 | 25796 ft | 433 kts | 248° |
| 2026-04-29 16:21 | 29.43511 | -12.16270 | 25129 ft | 432 kts | 248° |
| 2026-04-29 16:22 | 29.42442 | -12.19472 | 24469 ft | 427 kts | 248° |
| 2026-04-29 16:22 | 29.41385 | -12.22633 | 23798 ft | 424 kts | 248° |
| 2026-04-29 16:22 | 29.40332 | -12.25777 | 23053 ft | 421 kts | 248° |
| 2026-04-29 16:22 | 29.39286 | -12.28901 | 22346 ft | 417 kts | 248° |
| 2026-04-29 16:23 | 29.38250 | -12.31989 | 21696 ft | 413 kts | 248° |
| 2026-04-29 16:23 | 29.37225 | -12.35042 | 21060 ft | 408 kts | 248° |
| 2026-04-29 16:23 | 29.36210 | -12.38064 | 20431 ft | 405 kts | 248° |
| 2026-04-29 16:23 | 29.35216 | -12.41020 | 19815 ft | 401 kts | 248° |
| 2026-04-29 16:24 | 29.34215 | -12.43994 | 19203 ft | 398 kts | 248° |
| 2026-04-29 16:24 | 29.33224 | -12.46940 | 18598 ft | 396 kts | 248° |
| 2026-04-29 16:24 | 29.32234 | -12.49876 | 17954 ft | 393 kts | 248° |
| 2026-04-29 16:24 | 29.31253 | -12.52785 | 17311 ft | 390 kts | 248° |
| 2026-04-29 16:25 | 29.30265 | -12.55712 | 16691 ft | 387 kts | 248° |
| 2026-04-29 16:25 | 29.29311 | -12.58540 | 16115 ft | 384 kts | 248° |
| 2026-04-29 16:25 | 29.28350 | -12.61382 | 15543 ft | 381 kts | 248° |
| 2026-04-29 16:25 | 29.27396 | -12.64203 | 14979 ft | 379 kts | 248° |
| 2026-04-29 16:26 | 29.26446 | -12.67010 | 14428 ft | 377 kts | 248° |
| 2026-04-29 16:26 | 29.25500 | -12.69803 | 13883 ft | 375 kts | 248° |
| 2026-04-29 16:26 | 29.24668 | -12.72626 | 13229 ft | 375 kts | 257° |
| 2026-04-29 16:26 | 29.24183 | -12.75555 | 12617 ft | 374 kts | 258° |
| 2026-04-29 16:27 | 29.23696 | -12.78460 | 12115 ft | 370 kts | 258° |
| 2026-04-29 16:27 | 29.23212 | -12.81343 | 11641 ft | 366 kts | 258° |
| 2026-04-29 16:27 | 29.22737 | -12.84165 | 11414 ft | 355 kts | 258° |
| 2026-04-29 16:27 | 29.22278 | -12.86893 | 11219 ft | 344 kts | 258° |
| 2026-04-29 16:28 | 29.21832 | -12.89537 | 11051 ft | 333 kts | 258° |
| 2026-04-29 16:28 | 29.21400 | -12.92099 | 10870 ft | 323 kts | 258° |
| 2026-04-29 16:28 | 29.20979 | -12.94590 | 10713 ft | 314 kts | 258° |
| 2026-04-29 16:28 | 29.20570 | -12.97004 | 10553 ft | 304 kts | 258° |
| 2026-04-29 16:29 | 29.20174 | -12.99346 | 10407 ft | 295 kts | 258° |
| 2026-04-29 16:29 | 29.19788 | -13.01622 | 10263 ft | 287 kts | 258° |
| 2026-04-29 16:29 | 29.19412 | -13.03837 | 10028 ft | 282 kts | 258° |
| 2026-04-29 16:29 | 29.19037 | -13.06046 | 9674 ft | 282 kts | 258° |
| 2026-04-29 16:30 | 29.18664 | -13.08239 | 9315 ft | 281 kts | 258° |
| 2026-04-29 16:30 | 29.18292 | -13.10423 | 8995 ft | 279 kts | 258° |
| 2026-04-29 16:30 | 29.17921 | -13.12599 | 8657 ft | 278 kts | 258° |
| 2026-04-29 16:30 | 29.17553 | -13.14759 | 8323 ft | 276 kts | 258° |
| 2026-04-29 16:31 | 29.17185 | -13.16915 | 8000 ft | 275 kts | 257° |
| 2026-04-29 16:31 | 29.16819 | -13.19050 | 7687 ft | 273 kts | 257° |
| 2026-04-29 16:31 | 29.16455 | -13.21182 | 7373 ft | 272 kts | 257° |
| 2026-04-29 16:31 | 29.16091 | -13.23306 | 7055 ft | 271 kts | 257° |
| 2026-04-29 16:32 | 29.15731 | -13.25405 | 6845 ft | 266 kts | 257° |
| 2026-04-29 16:32 | 29.15381 | -13.27443 | 6759 ft | 256 kts | 257° |
| 2026-04-29 16:32 | 29.15045 | -13.29402 | 6685 ft | 246 kts | 257° |
| 2026-04-29 16:32 | 29.14721 | -13.31288 | 6607 ft | 237 kts | 257° |
| 2026-04-29 16:33 | 29.15179 | -13.34943 | 6058 ft | 238 kts | 288° |
| 2026-04-29 16:33 | 29.15750 | -13.36710 | 5793 ft | 235 kts | 289° |
| 2026-04-29 16:33 | 29.16314 | -13.38423 | 5725 ft | 224 kts | 289° |
| 2026-04-29 16:34 | 29.16848 | -13.40029 | 5642 ft | 209 kts | 289° |
| 2026-04-29 16:34 | 29.17355 | -13.41544 | 5472 ft | 199 kts | 289° |
| 2026-04-29 16:34 | 29.17836 | -13.42980 | 5313 ft | 188 kts | 288° |
| 2026-04-29 16:34 | 29.17955 | -13.44398 | 5145 ft | 175 kts | 255° |
| 2026-04-29 16:35 | 29.17380 | -13.45551 | 4941 ft | 167 kts | 225° |
| 2026-04-29 16:35 | 29.16426 | -13.46328 | 4611 ft | 169 kts | 213° |
| 2026-04-29 16:35 | 29.15418 | -13.47015 | 4318 ft | 167 kts | 212° |
| 2026-04-29 16:35 | 29.14439 | -13.47666 | 4112 ft | 162 kts | 212° |
| 2026-04-29 16:36 | 29.13463 | -13.48304 | 3888 ft | 162 kts | 212° |
| 2026-04-29 16:36 | 29.12477 | -13.48946 | 3656 ft | 163 kts | 212° |
| 2026-04-29 16:36 | 29.11490 | -13.49584 | 3395 ft | 163 kts | 211° |
| 2026-04-29 16:36 | 29.10504 | -13.50219 | 3136 ft | 162 kts | 210° |
| 2026-04-29 16:37 | 29.09519 | -13.50848 | 2869 ft | 162 kts | 211° |
| 2026-04-29 16:37 | 29.08529 | -13.51479 | 2758 ft | 164 kts | 210° |
| 2026-04-29 16:37 | 29.07529 | -13.52111 | 2754 ft | 165 kts | 210° |
| 2026-04-29 16:37 | 29.06867 | -13.52530 | 2769 ft | 164 kts | 210° |
| 2026-04-29 16:38 | 29.05607 | -13.53326 | 2861 ft | 151 kts | 210° |
| 2026-04-29 16:38 | 29.04695 | -13.53902 | 2763 ft | 149 kts | 210° |
| 2026-04-29 16:38 | 29.03790 | -13.54474 | 2491 ft | 148 kts | 210° |
| 2026-04-29 16:38 | 29.02891 | -13.55042 | 2191 ft | 148 kts | 211° |
| 2026-04-29 16:39 | 29.01991 | -13.55610 | 1897 ft | 148 kts | 211° |
| 2026-04-29 16:39 | 29.01090 | -13.56178 | 1572 ft | 148 kts | 210° |
| 2026-04-29 16:39 | 29.00190 | -13.56749 | 1277 ft | 148 kts | 208° |
| 2026-04-29 16:39 | 28.99289 | -13.57320 | 1017 ft | 148 kts | 207° |
| 2026-04-29 16:40 | 28.98400 | -13.57903 | 769 ft | 147 kts | 211° |
| 2026-04-29 16:40 | 28.97594 | -13.58613 | 571 ft | 146 kts | 216° |
| 2026-04-29 16:40 | 28.96749 | -13.59238 | 378 ft | 145 kts | 206° |
| 2026-04-29 16:40 | 28.95855 | -13.59769 | 177 ft | 144 kts | 205° |
| 2026-04-29 16:41 | 28.94990 | -13.60271 | 45 ft | 131 kts | 202° |
| 2026-04-29 16:41 | 28.94290 | -13.60671 | 33 ft | 91 kts | 206° |
| 2026-04-29 16:41 | 28.93861 | -13.60919 | 27 ft | 47 kts | 207° |
| 2026-04-29 16:41 | 28.93686 | -13.61020 | 24 ft | 21 kts | 206° |
| 2026-04-29 16:42 | 28.93612 | -13.61102 | 24 ft | 14 kts | 267° |
| 2026-04-29 16:42 | 28.93652 | -13.61203 | 23 ft | 15 kts | 312° |
| 2026-04-29 16:42 | 28.93734 | -13.61198 | 24 ft | 12 kts | 26° |
| 2026-04-29 16:42 | 28.93816 | -13.61153 | 27 ft | 14 kts | 26° |
| 2026-04-29 16:43 | 28.93908 | -13.61101 | 29 ft | 16 kts | 26° |
| 2026-04-29 16:43 | 28.94011 | -13.61041 | 27 ft | 17 kts | 27° |
| 2026-04-29 16:43 | 28.94123 | -13.60975 | 29 ft | 19 kts | 27° |
| 2026-04-29 16:43 | 28.94246 | -13.60903 | 30 ft | 21 kts | 27° |
| 2026-04-29 16:44 | 28.94380 | -13.60825 | 32 ft | 22 kts | 27° |
| 2026-04-29 16:44 | 28.94523 | -13.60743 | 34 ft | 24 kts | 24° |
| 2026-04-29 16:44 | 28.94675 | -13.60659 | 36 ft | 25 kts | 27° |
| 2026-04-29 16:44 | 28.94832 | -13.60565 | 38 ft | 26 kts | 27° |
| 2026-04-29 16:45 | 28.94983 | -13.60477 | 39 ft | 23 kts | 27° |
| 2026-04-29 16:45 | 28.95118 | -13.60398 | 43 ft | 20 kts | 27° |
| 2026-04-29 16:45 | 28.95235 | -13.60329 | 44 ft | 17 kts | 27° |
| 2026-04-29 16:45 | 28.95327 | -13.60274 | 43 ft | 13 kts | 28° |
| 2026-04-29 16:46 | 28.95391 | -13.60249 | 46 ft | 4 kts | 350° |
| 2026-04-29 16:46 | 28.95394 | -13.60251 | 47 ft | 1 kts | 330° |
| 2026-04-29 16:46 | 28.95401 | -13.60260 | 47 ft | 2 kts | 310° |
| 2026-04-29 16:46 | 28.95408 | -13.60272 | 46 ft | 4 kts | 300° |
| 2026-04-29 16:47 | 28.95419 | -13.60296 | 44 ft | 1 kts | 298° |
| 2026-04-29 16:47 | 28.95420 | -13.60298 | 44 ft | 0 kts | 298° |
| 2026-04-29 16:47 | 28.95421 | -13.60302 | 45 ft | 2 kts | 295° |
| 2026-04-29 16:47 | 28.95425 | -13.60311 | 46 ft | 0 kts | 296° |